createdAt,value
2023-02-15T00:01:54.074Z,17.50
2023-02-15T00:04:23.858Z,17.50
2023-02-15T00:06:51.127Z,17.50
2023-02-15T00:09:17.898Z,17.40
2023-02-15T00:11:50.765Z,17.40
2023-02-15T00:14:23.212Z,17.40
2023-02-15T00:16:51.742Z,17.30
2023-02-15T00:19:20.019Z,17.30
2023-02-15T00:21:47.962Z,17.30
2023-02-15T00:24:16.654Z,17.30
2023-02-15T00:26:44.371Z,17.30
2023-02-15T00:29:12.777Z,17.20
2023-02-15T00:31:39.868Z,17.10
2023-02-15T00:34:07.775Z,17.10
2023-02-15T00:36:35.959Z,17.10
2023-02-15T00:39:02.787Z,17.10
2023-02-15T00:41:29.552Z,17.10
2023-02-15T00:43:56.326Z,17.00
2023-02-15T00:46:23.068Z,17.00
2023-02-15T00:48:50.083Z,17.00
2023-02-15T00:51:18.175Z,16.90
2023-02-15T00:53:45.324Z,16.90
2023-02-15T00:56:12.570Z,16.90
2023-02-15T00:58:39.357Z,16.90
2023-02-15T01:01:11.708Z,16.80
2023-02-15T01:03:39.178Z,16.80
2023-02-15T01:06:06.116Z,16.80
2023-02-15T01:08:33.250Z,16.80
2023-02-15T01:11:08.665Z,16.80
2023-02-15T01:13:36.577Z,16.70
2023-02-15T01:16:04.681Z,16.70
2023-02-15T01:18:32.463Z,16.70
2023-02-15T01:20:59.532Z,16.70
2023-02-15T01:23:26.602Z,16.60
2023-02-15T01:25:53.384Z,16.60
2023-02-15T01:28:20.193Z,16.60
2023-02-15T01:30:47.027Z,16.50
2023-02-15T01:33:18.725Z,16.50
2023-02-15T01:35:47.095Z,16.50
2023-02-15T01:38:15.062Z,16.50
2023-02-15T01:40:42.187Z,16.50
2023-02-15T01:43:12.992Z,16.50
2023-02-15T01:45:40.267Z,16.40
2023-02-15T01:48:28.920Z,16.50
2023-02-15T01:50:59.371Z,16.40
2023-02-15T01:53:34.312Z,16.40
2023-02-15T01:56:08.592Z,16.40
2023-02-15T01:58:37.183Z,16.40
2023-02-15T02:01:08.387Z,16.40
2023-02-15T02:03:54.178Z,16.40
2023-02-15T02:06:21.549Z,16.30
2023-02-15T02:08:49.532Z,16.30
2023-02-15T02:11:16.783Z,16.30
2023-02-15T02:13:47.586Z,16.30
2023-02-15T02:16:20.415Z,16.20
2023-02-15T02:19:02.503Z,16.20
2023-02-15T02:22:04.399Z,16.20
2023-02-15T02:24:59.158Z,16.20
2023-02-15T02:28:07.096Z,16.10
2023-02-15T02:30:52.187Z,16.10
2023-02-15T02:33:44.083Z,16.10
2023-02-15T02:36:30.224Z,16.10
2023-02-15T02:39:24.894Z,16.10
2023-02-15T02:42:14.912Z,16.10
2023-02-15T02:44:46.890Z,16.10
2023-02-15T02:47:43.735Z,16.00
2023-02-15T02:50:17.408Z,16.00
2023-02-15T02:52:49.871Z,16.00
2023-02-15T02:55:22.477Z,16.00
2023-02-15T02:57:53.896Z,16.00
2023-02-15T03:00:24.373Z,16.00
2023-02-15T03:03:00.150Z,16.00
2023-02-15T03:05:30.418Z,15.90
2023-02-15T03:08:02.054Z,16.00
2023-02-15T03:10:30.585Z,15.90
2023-02-15T03:12:57.471Z,15.90
2023-02-15T03:15:50.565Z,15.90
2023-02-15T03:18:21.073Z,15.90
2023-02-15T03:20:48.805Z,15.80
2023-02-15T03:23:20.444Z,15.80
2023-02-15T03:25:57.246Z,15.80
2023-02-15T03:28:33.177Z,15.80
2023-02-15T03:31:03.928Z,15.80
2023-02-15T03:33:31.461Z,15.80
2023-02-15T03:36:04.152Z,15.80
2023-02-15T03:38:37.466Z,15.70
2023-02-15T03:41:12.239Z,15.70
2023-02-15T03:43:54.335Z,15.70
2023-02-15T03:46:43.559Z,15.70
2023-02-15T03:49:23.969Z,15.70
2023-02-15T03:51:54.120Z,15.70
2023-02-15T03:54:43.570Z,15.60
2023-02-15T03:57:41.759Z,15.60
2023-02-15T04:00:36.017Z,15.60
2023-02-15T04:03:32.786Z,15.60
2023-02-15T04:06:01.151Z,15.60
2023-02-15T04:08:48.080Z,15.50
2023-02-15T04:11:14.984Z,15.50
2023-02-15T04:13:43.142Z,15.50
2023-02-15T04:16:10.415Z,15.50
2023-02-15T04:19:02.515Z,15.50
2023-02-15T04:21:50.204Z,15.50
2023-02-15T04:24:36.031Z,15.40
2023-02-15T04:27:04.090Z,15.40
2023-02-15T04:29:31.409Z,15.40
2023-02-15T04:32:00.477Z,15.40
2023-02-15T04:34:27.341Z,15.40
2023-02-15T04:36:54.087Z,15.30
2023-02-15T04:39:20.803Z,15.30
2023-02-15T04:41:48.697Z,15.30
2023-02-15T04:44:16.035Z,15.30
2023-02-15T04:46:42.796Z,15.30
2023-02-15T04:49:09.877Z,15.30
2023-02-15T04:51:36.837Z,15.30
2023-02-15T04:54:03.589Z,15.30
2023-02-15T04:56:31.003Z,15.30
2023-02-15T04:58:58.022Z,15.30
2023-02-15T05:01:25.111Z,15.20
2023-02-15T05:03:51.917Z,15.20
2023-02-15T05:06:18.645Z,15.20
2023-02-15T05:08:45.342Z,15.20
2023-02-15T05:11:12.022Z,15.20
2023-02-15T05:13:38.709Z,15.20
2023-02-15T05:16:05.687Z,15.20
2023-02-15T05:18:33.463Z,15.20
2023-02-15T05:21:00.192Z,15.20
2023-02-15T05:23:27.116Z,15.10
2023-02-15T05:26:17.119Z,15.10
2023-02-15T05:28:43.978Z,15.10
2023-02-15T05:31:17.633Z,15.10
2023-02-15T05:33:45.222Z,15.10
2023-02-15T05:36:12.646Z,15.10
2023-02-15T05:38:39.912Z,15.10
2023-02-15T05:41:07.624Z,15.00
2023-02-15T05:43:34.624Z,15.00
2023-02-15T05:46:02.212Z,15.00
2023-02-15T05:48:29.811Z,15.00
2023-02-15T05:51:01.775Z,15.00
2023-02-15T05:53:30.611Z,15.00
2023-02-15T05:56:00.640Z,14.90
2023-02-15T05:58:28.850Z,14.90
2023-02-15T06:00:56.205Z,14.90
2023-02-15T06:03:24.161Z,14.90
2023-02-15T06:05:50.952Z,14.90
2023-02-15T06:08:17.670Z,14.90
2023-02-15T06:10:44.407Z,14.90
2023-02-15T06:13:11.087Z,14.90
2023-02-15T06:15:37.806Z,14.90
2023-02-15T06:18:04.835Z,14.80
2023-02-15T06:20:31.574Z,14.80
2023-02-15T06:22:58.215Z,14.80
2023-02-15T06:25:25.499Z,14.80
2023-02-15T06:27:52.157Z,14.80
2023-02-15T06:30:18.994Z,14.80
2023-02-15T06:32:45.798Z,14.80
2023-02-15T06:35:12.674Z,14.70
2023-02-15T06:37:39.735Z,14.70
2023-02-15T06:40:07.447Z,14.70
2023-02-15T06:42:34.278Z,14.70
2023-02-15T06:45:01.511Z,14.70
2023-02-15T06:47:28.256Z,14.60
2023-02-15T06:49:55.090Z,14.60
2023-02-15T06:52:22.031Z,14.70
2023-02-15T06:54:48.710Z,14.60
2023-02-15T06:57:15.606Z,14.60
2023-02-15T06:59:42.279Z,14.60
2023-02-15T07:02:11.686Z,14.60
2023-02-15T07:04:38.499Z,14.60
2023-02-15T07:07:05.462Z,14.60
2023-02-15T07:09:32.188Z,14.60
2023-02-15T07:12:17.615Z,14.60
2023-02-15T07:14:44.355Z,14.60
2023-02-15T07:17:32.625Z,14.50
2023-02-15T07:19:57.644Z,14.50
2023-02-15T07:22:24.326Z,14.50
2023-02-15T07:24:51.033Z,14.40
2023-02-15T07:27:17.706Z,14.40
2023-02-15T07:29:44.382Z,14.40
2023-02-15T07:32:11.065Z,14.40
2023-02-15T07:34:37.825Z,14.40
2023-02-15T07:37:05.431Z,14.40
2023-02-15T07:39:32.182Z,14.40
2023-02-15T07:42:00.474Z,14.40
2023-02-15T07:44:30.915Z,14.40
2023-02-15T07:46:57.668Z,14.40
2023-02-15T07:49:24.409Z,14.40
2023-02-15T07:51:51.286Z,14.40
2023-02-15T07:54:18.038Z,14.40
2023-02-15T07:56:44.796Z,14.50
2023-02-15T07:59:11.584Z,14.70
2023-02-15T08:01:39.442Z,14.80
2023-02-15T08:04:07.718Z,14.90
2023-02-15T08:06:36.391Z,15.10
2023-02-15T08:09:08.150Z,15.20
2023-02-15T08:11:37.489Z,15.30
2023-02-15T08:14:11.182Z,15.40
2023-02-15T08:16:39.716Z,15.40
2023-02-15T08:19:10.500Z,15.50
2023-02-15T08:21:40.263Z,15.70
2023-02-15T08:24:09.262Z,15.80
2023-02-15T08:26:36.840Z,15.80
2023-02-15T08:29:03.898Z,15.90
2023-02-15T08:31:30.860Z,16.00
2023-02-15T08:33:58.287Z,16.10
2023-02-15T08:36:28.201Z,16.20
2023-02-15T08:38:55.221Z,16.10
2023-02-15T08:41:24.637Z,16.20
2023-02-15T08:43:57.340Z,16.10
2023-02-15T08:46:26.014Z,16.10
2023-02-15T08:48:52.851Z,16.10
2023-02-15T08:51:26.235Z,16.10
2023-02-15T08:53:56.284Z,16.10
2023-02-15T08:56:26.831Z,16.10
2023-02-15T08:58:57.394Z,16.10
2023-02-15T09:01:27.457Z,16.10
2023-02-15T09:04:06.321Z,16.10
2023-02-15T09:06:33.249Z,16.20
2023-02-15T09:08:59.913Z,16.20
2023-02-15T09:11:29.100Z,16.20
2023-02-15T09:13:57.394Z,16.20
2023-02-15T09:16:26.483Z,16.10
2023-02-15T09:18:53.879Z,16.10
2023-02-15T09:21:23.416Z,16.10
2023-02-15T09:23:52.703Z,16.10
2023-02-15T09:26:22.226Z,16.10
2023-02-15T09:28:52.586Z,16.00
2023-02-15T09:31:22.282Z,16.00
2023-02-15T09:33:50.424Z,16.00
2023-02-15T09:36:18.543Z,15.90
2023-02-15T09:38:46.785Z,15.90
2023-02-15T09:41:48.936Z,15.90
2023-02-15T09:44:39.933Z,15.80
2023-02-15T09:47:34.527Z,15.80
2023-02-15T09:50:23.811Z,15.70
2023-02-15T09:53:27.442Z,15.70
2023-02-15T09:56:06.480Z,15.70
2023-02-15T09:58:55.389Z,15.70
2023-02-15T10:01:37.421Z,15.60
2023-02-15T10:04:07.343Z,15.60
2023-02-15T10:06:45.257Z,15.60
2023-02-15T10:09:33.557Z,15.50
2023-02-15T10:12:09.091Z,15.60
2023-02-15T10:14:51.613Z,15.50
2023-02-15T10:17:37.051Z,15.50
2023-02-15T10:20:11.899Z,15.40
2023-02-15T10:22:52.588Z,15.50
2023-02-15T10:25:44.215Z,15.40
2023-02-15T10:28:18.624Z,15.40
2023-02-15T10:30:54.460Z,15.40
2023-02-15T10:33:33.208Z,15.40
2023-02-15T10:36:18.097Z,15.40
2023-02-15T10:38:50.833Z,15.40
2023-02-15T10:41:33.369Z,15.40
2023-02-15T10:44:50.175Z,15.30
2023-02-15T10:47:41.043Z,15.30
2023-02-15T10:50:20.181Z,15.30
2023-02-15T10:53:07.042Z,15.30
2023-02-15T10:55:42.276Z,15.30
2023-02-15T10:58:17.218Z,15.30
2023-02-15T11:00:52.327Z,15.30
2023-02-15T11:03:53.674Z,15.30
2023-02-15T11:06:23.786Z,15.30
2023-02-15T11:09:01.668Z,15.30
2023-02-15T11:11:45.776Z,15.30
2023-02-15T11:14:37.445Z,15.30
2023-02-15T11:17:18.393Z,15.30
2023-02-15T11:20:26.680Z,15.30
2023-02-15T11:22:54.435Z,15.30
2023-02-15T11:25:42.165Z,15.30
2023-02-15T11:28:19.664Z,15.30
2023-02-15T11:30:53.104Z,15.30
2023-02-15T11:33:26.126Z,15.30
2023-02-15T11:36:10.459Z,15.30
2023-02-15T11:38:40.378Z,15.30
2023-02-15T11:41:11.144Z,15.20
2023-02-15T11:43:48.721Z,15.30
2023-02-15T11:46:15.848Z,15.20
2023-02-15T11:48:43.315Z,15.30
2023-02-15T11:51:16.978Z,15.30
2023-02-15T11:53:45.506Z,15.20
2023-02-15T11:56:20.282Z,15.20
2023-02-15T11:58:56.309Z,15.20
2023-02-15T12:01:33.915Z,15.20
2023-02-15T12:04:19.105Z,15.20
2023-02-15T12:06:52.585Z,15.20
2023-02-15T12:09:31.792Z,15.20
2023-02-15T12:12:26.615Z,15.20
2023-02-15T12:14:56.165Z,15.20
2023-02-15T12:17:58.414Z,15.20
2023-02-15T12:20:33.886Z,15.20
2023-02-15T12:23:04.877Z,15.20
2023-02-15T12:25:52.813Z,15.20
2023-02-15T12:28:45.397Z,15.20
2023-02-15T12:31:44.754Z,15.20
2023-02-15T12:34:36.898Z,15.20
2023-02-15T12:37:12.694Z,15.10
2023-02-15T12:39:56.161Z,15.10
2023-02-15T12:42:24.717Z,15.10
2023-02-15T12:44:59.101Z,15.10
2023-02-15T12:47:30.572Z,15.10
2023-02-15T12:50:18.824Z,15.10
2023-02-15T12:52:48.648Z,15.10
2023-02-15T12:55:28.216Z,15.10
2023-02-15T12:58:19.083Z,15.10
2023-02-15T13:00:46.783Z,15.10
2023-02-15T13:03:22.583Z,15.10
2023-02-15T13:05:52.935Z,15.10
2023-02-15T13:08:28.808Z,15.10
2023-02-15T13:10:58.282Z,15.10
2023-02-15T13:13:28.735Z,15.10
2023-02-15T13:16:03.564Z,15.10
2023-02-15T13:18:37.567Z,15.00
2023-02-15T13:21:17.663Z,15.00
2023-02-15T13:23:49.354Z,15.00
2023-02-15T13:26:23.179Z,15.10
2023-02-15T13:28:55.108Z,15.00
2023-02-15T13:31:25.685Z,15.00
2023-02-15T13:34:00.758Z,15.00
2023-02-15T13:36:27.436Z,15.00
2023-02-15T13:39:31.270Z,15.00
2023-02-15T13:42:14.923Z,15.00
2023-02-15T13:44:44.659Z,15.00
2023-02-15T13:47:49.787Z,15.00
2023-02-15T13:50:23.250Z,15.00
2023-02-15T13:53:00.812Z,15.00
2023-02-15T13:55:52.369Z,15.00
2023-02-15T13:58:31.177Z,14.90
2023-02-15T14:01:53.973Z,14.90
2023-02-15T14:04:33.254Z,15.00
2023-02-15T14:07:12.724Z,14.90
2023-02-15T14:10:03.302Z,14.90
2023-02-15T14:12:55.242Z,14.90
2023-02-15T14:15:40.837Z,14.90
2023-02-15T14:18:36.567Z,14.90
2023-02-15T14:21:22.663Z,14.90
2023-02-15T14:24:13.960Z,14.90
2023-02-15T14:26:46.421Z,14.90
2023-02-15T14:29:53.715Z,14.90
2023-02-15T14:32:29.944Z,14.90
2023-02-15T14:35:02.130Z,14.90
2023-02-15T14:37:47.114Z,14.90
2023-02-15T14:40:49.918Z,14.90
2023-02-15T14:43:32.289Z,14.90
2023-02-15T14:46:08.728Z,14.90
2023-02-15T14:48:49.129Z,14.90
2023-02-15T14:51:46.920Z,14.90
2023-02-15T14:54:19.785Z,14.90
2023-02-15T14:57:02.468Z,14.90
2023-02-15T14:59:51.210Z,14.90
2023-02-15T15:02:23.110Z,14.90
2023-02-15T15:04:52.526Z,14.90
2023-02-15T15:07:37.414Z,14.90
2023-02-15T15:10:27.454Z,14.90
2023-02-15T15:12:58.559Z,14.90
2023-02-15T15:15:28.119Z,14.90
2023-02-15T15:17:56.639Z,14.90
2023-02-15T15:21:02.267Z,14.90
2023-02-15T15:23:42.179Z,14.90
2023-02-15T15:26:25.231Z,14.90
2023-02-15T15:28:51.918Z,14.90
2023-02-15T15:31:27.697Z,14.90
2023-02-15T15:34:13.138Z,14.90
2023-02-15T15:36:58.159Z,14.90
2023-02-15T15:39:46.185Z,14.90
2023-02-15T15:42:32.771Z,14.80
2023-02-15T15:45:20.533Z,14.90
2023-02-15T15:48:15.681Z,14.80
2023-02-15T15:50:43.541Z,14.80
2023-02-15T15:53:23.670Z,14.80
2023-02-15T15:55:54.942Z,14.80
2023-02-15T15:58:22.435Z,14.80
2023-02-15T16:01:09.665Z,14.80
2023-02-15T16:03:36.911Z,14.80
2023-02-15T16:06:04.139Z,14.80
2023-02-15T16:08:38.080Z,14.80
2023-02-15T16:11:23.464Z,14.80
2023-02-15T16:13:50.762Z,14.80
2023-02-15T16:16:24.379Z,14.80
2023-02-15T16:18:52.272Z,14.80
2023-02-15T16:21:37.098Z,14.80
2023-02-15T16:24:25.611Z,14.80
2023-02-15T16:27:19.497Z,14.80
2023-02-15T16:29:46.194Z,14.70
2023-02-15T16:32:27.277Z,14.70
2023-02-15T16:34:57.827Z,14.70
2023-02-15T16:37:32.601Z,14.70
2023-02-15T16:39:59.673Z,14.70
2023-02-15T16:42:26.794Z,14.70
2023-02-15T16:45:09.764Z,14.70
2023-02-15T16:47:43.146Z,14.70
2023-02-15T16:50:18.499Z,14.70
2023-02-15T16:52:45.636Z,14.70
2023-02-15T16:55:23.081Z,14.70
2023-02-15T16:57:51.279Z,14.70
2023-02-15T17:00:25.768Z,14.60
2023-02-15T17:03:01.282Z,14.70
2023-02-15T17:05:46.713Z,14.60
2023-02-15T17:08:20.536Z,14.60
2023-02-15T17:11:10.706Z,14.60
2023-02-15T17:13:37.526Z,14.60
2023-02-15T17:16:04.608Z,14.60
2023-02-15T17:18:32.654Z,14.60
2023-02-15T17:21:11.503Z,14.60
2023-02-15T17:23:48.021Z,14.60
2023-02-15T17:26:27.604Z,14.60
2023-02-15T17:28:59.029Z,14.60
2023-02-15T17:31:30.293Z,14.60
2023-02-15T17:33:59.254Z,14.60
2023-02-15T17:36:30.208Z,14.60
2023-02-15T17:38:59.797Z,14.60
2023-02-15T17:41:28.378Z,14.60
2023-02-15T17:43:55.253Z,14.60
2023-02-15T17:46:25.203Z,14.50
2023-02-15T17:48:54.753Z,14.50
2023-02-15T17:51:22.438Z,14.50
2023-02-15T17:54:08.433Z,14.50
2023-02-15T17:56:36.774Z,14.50
2023-02-15T17:59:07.668Z,14.50
2023-02-15T18:02:02.047Z,14.50
2023-02-15T18:04:47.200Z,14.50
2023-02-15T18:07:32.720Z,14.50
2023-02-15T18:10:18.063Z,14.50
2023-02-15T18:12:44.783Z,14.50
2023-02-15T18:15:13.089Z,14.50
2023-02-15T18:17:43.869Z,14.40
2023-02-15T18:20:36.859Z,14.40
2023-02-15T18:23:03.634Z,14.40
2023-02-15T18:25:30.454Z,14.50
2023-02-15T18:27:57.281Z,14.70
2023-02-15T18:30:26.739Z,14.90
2023-02-15T18:32:56.749Z,15.10
2023-02-15T18:35:26.506Z,15.20
2023-02-15T18:37:53.978Z,15.40
2023-02-15T18:40:23.315Z,15.50
2023-02-15T18:42:50.289Z,15.60
2023-02-15T18:45:21.313Z,15.70
2023-02-15T18:47:49.136Z,15.70
2023-02-15T18:50:19.042Z,15.80
2023-02-15T18:52:47.734Z,15.70
2023-02-15T18:55:19.377Z,15.70
2023-02-15T18:57:47.307Z,15.80
2023-02-15T19:00:20.241Z,15.70
2023-02-15T19:02:47.317Z,15.80
2023-02-15T19:05:16.029Z,15.80
2023-02-15T19:07:45.325Z,15.80
2023-02-15T19:10:17.364Z,15.80
2023-02-15T19:12:44.408Z,15.80
2023-02-15T19:15:19.504Z,15.90
2023-02-15T19:17:46.221Z,15.90
2023-02-15T19:20:19.063Z,15.90
2023-02-15T19:22:47.703Z,16.00
2023-02-15T19:25:19.442Z,16.00
2023-02-15T19:27:46.719Z,16.00
2023-02-15T19:30:29.672Z,16.00
2023-02-15T19:32:57.711Z,16.10
2023-02-15T19:35:28.512Z,16.10
2023-02-15T19:37:58.017Z,16.10
2023-02-15T19:40:30.418Z,16.10
2023-02-15T19:42:57.711Z,16.10
2023-02-15T19:45:26.990Z,16.20
2023-02-15T19:47:55.087Z,16.20
2023-02-15T19:50:25.657Z,16.20
2023-02-15T19:52:52.761Z,16.20
2023-02-15T19:55:26.750Z,16.30
2023-02-15T19:57:54.787Z,16.30
2023-02-15T20:00:25.731Z,16.30
2023-02-15T20:02:53.343Z,16.30
2023-02-15T20:05:20.742Z,16.40
2023-02-15T20:07:53.732Z,16.40
2023-02-15T20:10:23.172Z,16.40
2023-02-15T20:12:50.350Z,16.40
2023-02-15T20:15:24.584Z,16.40
2023-02-15T20:17:52.519Z,16.40
2023-02-15T20:20:20.917Z,16.50
2023-02-15T20:22:50.355Z,16.50
2023-02-15T20:25:21.571Z,16.50
2023-02-15T20:27:48.448Z,16.50
2023-02-15T20:30:23.804Z,16.60
2023-02-15T20:32:51.336Z,16.60
2023-02-15T20:35:24.176Z,16.60
2023-02-15T20:37:53.889Z,16.60
2023-02-15T20:40:29.629Z,16.70
2023-02-15T20:42:56.661Z,16.70
2023-02-15T20:45:29.046Z,16.70
2023-02-15T20:47:56.750Z,16.70
2023-02-15T20:50:31.799Z,16.70
2023-02-15T20:53:02.622Z,16.80
2023-02-15T20:55:31.308Z,16.80
2023-02-15T20:57:58.992Z,16.80
2023-02-15T21:00:28.881Z,16.80
2023-02-15T21:02:58.644Z,16.80
2023-02-15T21:05:28.498Z,16.80
2023-02-15T21:07:55.420Z,16.80
2023-02-15T21:10:29.287Z,16.70
2023-02-15T21:12:58.354Z,16.70
2023-02-15T21:15:34.753Z,16.70
2023-02-15T21:18:07.294Z,16.70
2023-02-15T21:20:35.869Z,16.60
2023-02-15T21:23:05.153Z,16.60
2023-02-15T21:25:36.914Z,16.50
2023-02-15T21:28:04.798Z,16.50
2023-02-15T21:30:31.694Z,16.50
2023-02-15T21:32:58.434Z,16.50
2023-02-15T21:35:25.437Z,16.50
2023-02-15T21:37:53.237Z,16.50
2023-02-15T21:40:27.447Z,16.40
2023-02-15T21:43:12.900Z,16.40
2023-02-15T21:45:58.195Z,16.40
2023-02-15T21:48:24.884Z,16.40
2023-02-15T21:51:10.017Z,16.30
2023-02-15T21:53:45.799Z,16.30
2023-02-15T21:56:16.699Z,16.30
2023-02-15T21:58:43.974Z,16.30
2023-02-15T22:01:22.512Z,16.20
2023-02-15T22:03:49.981Z,16.20
2023-02-15T22:06:16.851Z,16.20
2023-02-15T22:08:43.826Z,16.10
2023-02-15T22:11:19.705Z,16.10
2023-02-15T22:13:48.493Z,16.10
2023-02-15T22:16:20.716Z,16.10
2023-02-15T22:18:48.178Z,16.00
2023-02-15T22:21:19.180Z,16.00
2023-02-15T22:23:47.143Z,16.00
2023-02-15T22:26:24.570Z,16.00
2023-02-15T22:28:51.570Z,15.90
2023-02-15T22:31:23.080Z,15.90
2023-02-15T22:33:51.062Z,15.90
2023-02-15T22:36:28.334Z,15.90
2023-02-15T22:38:55.974Z,15.90
2023-02-15T22:41:31.703Z,15.80
2023-02-15T22:43:58.503Z,15.80
2023-02-15T22:46:26.017Z,15.80
2023-02-15T22:48:52.898Z,15.80
2023-02-15T22:51:22.117Z,15.80
2023-02-15T22:53:49.668Z,15.70
2023-02-15T22:56:26.803Z,15.70
2023-02-15T22:58:59.481Z,15.70
2023-02-15T23:01:35.004Z,15.70
2023-02-15T23:04:03.891Z,15.60
2023-02-15T23:06:31.627Z,15.60
2023-02-15T23:09:00.604Z,15.60
2023-02-15T23:11:27.782Z,15.60
2023-02-15T23:13:54.603Z,15.60
2023-02-15T23:16:21.360Z,15.60
2023-02-15T23:18:49.193Z,15.60
2023-02-15T23:21:23.612Z,15.50
2023-02-15T23:23:58.682Z,15.50
2023-02-15T23:26:33.839Z,15.50
2023-02-15T23:29:03.793Z,15.50
2023-02-15T23:31:33.030Z,15.40
2023-02-15T23:34:01.589Z,15.40
2023-02-15T23:36:37.340Z,15.40
2023-02-15T23:39:44.684Z,15.40
2023-02-15T23:42:24.644Z,15.30
2023-02-15T23:44:51.821Z,15.30
2023-02-15T23:47:41.764Z,15.30
2023-02-15T23:50:19.178Z,15.30
2023-02-15T23:52:45.962Z,15.20
2023-02-15T23:55:16.817Z,15.20
2023-02-15T23:57:44.588Z,15.20
